sensor_id;sensor_type;location;lat;lon;timestamp;P1;durP1;ratioP1;P2;durP2;ratioP2
26201;SDS011;13944;28.562;77.188;2022-08-23T00:01:30;43.50;;;32.80;;
26201;SDS011;13944;28.562;77.188;2022-08-23T00:03:58;40.53;;;32.65;;
26201;SDS011;13944;28.562;77.188;2022-08-23T00:06:26;40.75;;;32.50;;
26201;SDS011;13944;28.562;77.188;2022-08-23T00:08:53;40.40;;;33.45;;
26201;SDS011;13944;28.562;77.188;2022-08-23T00:12:02;38.63;;;31.75;;
26201;SDS011;13944;28.562;77.188;2022-08-23T00:14:14;41.42;;;32.90;;
26201;SDS011;13944;28.562;77.188;2022-08-23T00:16:42;38.10;;;32.75;;
26201;SDS011;13944;28.562;77.188;2022-08-23T00:19:09;42.67;;;32.45;;
26201;SDS011;13944;28.562;77.188;2022-08-23T00:21:37;42.85;;;34.75;;
26201;SDS011;13944;28.562;77.188;2022-08-23T00:24:05;47.05;;;34.17;;
26201;SDS011;13944;28.562;77.188;2022-08-23T00:26:49;44.25;;;34.53;;
26201;SDS011;13944;28.562;77.188;2022-08-23T00:29:16;40.55;;;34.72;;
26201;SDS011;13944;28.562;77.188;2022-08-23T00:31:43;43.22;;;34.25;;
26201;SDS011;13944;28.562;77.188;2022-08-23T00:34:10;41.85;;;34.20;;
26201;SDS011;13944;28.562;77.188;2022-08-23T00:36:37;42.95;;;33.95;;
26201;SDS011;13944;28.562;77.188;2022-08-23T00:39:04;46.00;;;34.38;;
26201;SDS011;13944;28.562;77.188;2022-08-23T00:41:31;44.78;;;35.00;;
26201;SDS011;13944;28.562;77.188;2022-08-23T00:43:58;47.78;;;34.75;;
26201;SDS011;13944;28.562;77.188;2022-08-23T00:46:57;45.40;;;36.00;;
26201;SDS011;13944;28.562;77.188;2022-08-23T00:49:43;44.28;;;37.22;;
26201;SDS011;13944;28.562;77.188;2022-08-23T00:52:13;51.60;;;39.10;;
26201;SDS011;13944;28.562;77.188;2022-08-23T00:54:41;51.72;;;40.10;;
26201;SDS011;13944;28.562;77.188;2022-08-23T00:57:10;56.97;;;39.35;;
26201;SDS011;13944;28.562;77.188;2022-08-23T00:59:37;65.28;;;39.58;;
26201;SDS011;13944;28.562;77.188;2022-08-23T01:02:04;51.33;;;37.78;;
26201;SDS011;13944;28.562;77.188;2022-08-23T01:04:32;46.65;;;36.85;;
26201;SDS011;13944;28.562;77.188;2022-08-23T01:07:03;46.80;;;35.70;;
26201;SDS011;13944;28.562;77.188;2022-08-23T01:09:32;58.65;;;34.30;;
26201;SDS011;13944;28.562;77.188;2022-08-23T01:12:02;155.88;;;39.08;;
26201;SDS011;13944;28.562;77.188;2022-08-23T01:14:39;73.55;;;34.90;;
26201;SDS011;13944;28.562;77.188;2022-08-23T01:17:07;68.18;;;34.33;;
26201;SDS011;13944;28.562;77.188;2022-08-23T01:19:38;41.05;;;30.63;;
26201;SDS011;13944;28.562;77.188;2022-08-23T01:24:31;37.10;;;28.38;;
26201;SDS011;13944;28.562;77.188;2022-08-23T01:26:59;38.25;;;28.00;;
26201;SDS011;13944;28.562;77.188;2022-08-23T01:29:25;34.97;;;28.35;;
26201;SDS011;13944;28.562;77.188;2022-08-23T01:31:52;38.05;;;28.10;;
26201;SDS011;13944;28.562;77.188;2022-08-23T01:34:21;35.60;;;28.42;;
26201;SDS011;13944;28.562;77.188;2022-08-23T01:36:50;37.22;;;27.80;;
26201;SDS011;13944;28.562;77.188;2022-08-23T01:39:17;37.13;;;29.80;;
26201;SDS011;13944;28.562;77.188;2022-08-23T01:41:44;38.90;;;30.48;;
26201;SDS011;13944;28.562;77.188;2022-08-23T01:44:10;39.08;;;31.13;;
26201;SDS011;13944;28.562;77.188;2022-08-23T01:46:37;41.95;;;31.88;;
26201;SDS011;13944;28.562;77.188;2022-08-23T01:49:03;40.97;;;30.95;;
26201;SDS011;13944;28.562;77.188;2022-08-23T01:51:30;36.30;;;30.27;;
26201;SDS011;13944;28.562;77.188;2022-08-23T01:53:57;38.83;;;28.42;;
26201;SDS011;13944;28.562;77.188;2022-08-23T01:56:24;40.22;;;29.50;;
26201;SDS011;13944;28.562;77.188;2022-08-23T01:58:51;36.85;;;27.63;;
26201;SDS011;13944;28.562;77.188;2022-08-23T02:01:18;42.20;;;28.02;;
26201;SDS011;13944;28.562;77.188;2022-08-23T02:03:44;41.10;;;28.90;;
26201;SDS011;13944;28.562;77.188;2022-08-23T02:06:11;38.05;;;28.83;;
26201;SDS011;13944;28.562;77.188;2022-08-23T02:08:37;38.05;;;28.80;;
26201;SDS011;13944;28.562;77.188;2022-08-23T02:11:23;36.65;;;27.10;;
26201;SDS011;13944;28.562;77.188;2022-08-23T02:13:51;36.72;;;27.88;;
26201;SDS011;13944;28.562;77.188;2022-08-23T02:16:22;33.78;;;26.73;;
26201;SDS011;13944;28.562;77.188;2022-08-23T02:18:49;33.05;;;27.52;;
26201;SDS011;13944;28.562;77.188;2022-08-23T02:21:16;36.65;;;27.38;;
26201;SDS011;13944;28.562;77.188;2022-08-23T02:23:43;35.15;;;25.20;;
26201;SDS011;13944;28.562;77.188;2022-08-23T02:26:10;37.20;;;27.55;;
26201;SDS011;13944;28.562;77.188;2022-08-23T02:28:37;35.20;;;26.48;;
26201;SDS011;13944;28.562;77.188;2022-08-23T02:31:03;37.33;;;29.10;;
26201;SDS011;13944;28.562;77.188;2022-08-23T02:33:30;42.45;;;27.98;;
26201;SDS011;13944;28.562;77.188;2022-08-23T02:35:56;37.53;;;30.45;;
26201;SDS011;13944;28.562;77.188;2022-08-23T02:38:23;36.88;;;28.90;;
26201;SDS011;13944;28.562;77.188;2022-08-23T02:40:49;41.90;;;30.90;;
26201;SDS011;13944;28.562;77.188;2022-08-23T02:43:17;43.80;;;31.40;;
26201;SDS011;13944;28.562;77.188;2022-08-23T02:45:43;39.53;;;31.38;;
26201;SDS011;13944;28.562;77.188;2022-08-23T02:48:10;38.97;;;31.48;;
26201;SDS011;13944;28.562;77.188;2022-08-23T02:50:36;42.20;;;32.15;;
26201;SDS011;13944;28.562;77.188;2022-08-23T02:53:03;40.42;;;31.40;;
26201;SDS011;13944;28.562;77.188;2022-08-23T02:55:30;43.67;;;35.35;;
26201;SDS011;13944;28.562;77.188;2022-08-23T02:57:56;43.08;;;36.60;;
26201;SDS011;13944;28.562;77.188;2022-08-23T03:00:23;42.33;;;35.42;;
26201;SDS011;13944;28.562;77.188;2022-08-23T03:02:50;46.50;;;35.88;;
26201;SDS011;13944;28.562;77.188;2022-08-23T03:05:17;46.72;;;36.67;;
26201;SDS011;13944;28.562;77.188;2022-08-23T03:07:43;50.78;;;38.08;;
26201;SDS011;13944;28.562;77.188;2022-08-23T03:10:10;43.65;;;36.75;;
26201;SDS011;13944;28.562;77.188;2022-08-23T03:12:37;42.38;;;37.17;;
26201;SDS011;13944;28.562;77.188;2022-08-23T03:15:04;51.72;;;39.90;;
26201;SDS011;13944;28.562;77.188;2022-08-23T03:17:31;51.55;;;42.70;;
26201;SDS011;13944;28.562;77.188;2022-08-23T03:19:57;56.17;;;43.15;;
26201;SDS011;13944;28.562;77.188;2022-08-23T03:22:24;52.25;;;44.83;;
26201;SDS011;13944;28.562;77.188;2022-08-23T03:24:50;61.65;;;46.88;;
26201;SDS011;13944;28.562;77.188;2022-08-23T03:27:17;54.28;;;45.00;;
26201;SDS011;13944;28.562;77.188;2022-08-23T03:29:43;56.53;;;43.28;;
26201;SDS011;13944;28.562;77.188;2022-08-23T03:32:10;61.83;;;47.17;;
26201;SDS011;13944;28.562;77.188;2022-08-23T03:34:37;57.58;;;47.03;;
26201;SDS011;13944;28.562;77.188;2022-08-23T03:37:04;53.90;;;44.53;;
26201;SDS011;13944;28.562;77.188;2022-08-23T03:39:31;60.72;;;42.92;;
26201;SDS011;13944;28.562;77.188;2022-08-23T03:41:58;65.78;;;44.92;;
26201;SDS011;13944;28.562;77.188;2022-08-23T03:44:24;54.15;;;42.45;;
26201;SDS011;13944;28.562;77.188;2022-08-23T03:46:51;55.55;;;43.13;;
26201;SDS011;13944;28.562;77.188;2022-08-23T03:49:17;53.13;;;45.15;;
26201;SDS011;13944;28.562;77.188;2022-08-23T03:51:44;53.78;;;43.72;;
26201;SDS011;13944;28.562;77.188;2022-08-23T03:54:11;55.50;;;42.40;;
26201;SDS011;13944;28.562;77.188;2022-08-23T03:56:38;52.40;;;40.53;;
26201;SDS011;13944;28.562;77.188;2022-08-23T03:59:06;53.00;;;42.42;;
26201;SDS011;13944;28.562;77.188;2022-08-23T04:01:33;50.58;;;40.33;;
26201;SDS011;13944;28.562;77.188;2022-08-23T04:04:00;55.78;;;40.15;;
26201;SDS011;13944;28.562;77.188;2022-08-23T04:06:27;47.75;;;40.08;;
26201;SDS011;13944;28.562;77.188;2022-08-23T04:08:53;55.10;;;40.13;;
26201;SDS011;13944;28.562;77.188;2022-08-23T04:11:21;48.20;;;38.53;;
26201;SDS011;13944;28.562;77.188;2022-08-23T04:13:48;48.88;;;38.17;;
26201;SDS011;13944;28.562;77.188;2022-08-23T04:16:14;50.03;;;38.13;;
26201;SDS011;13944;28.562;77.188;2022-08-23T04:18:43;46.53;;;37.33;;
26201;SDS011;13944;28.562;77.188;2022-08-23T04:21:11;49.08;;;39.53;;
26201;SDS011;13944;28.562;77.188;2022-08-23T04:23:39;50.45;;;40.05;;
26201;SDS011;13944;28.562;77.188;2022-08-23T04:26:05;49.38;;;38.35;;
26201;SDS011;13944;28.562;77.188;2022-08-23T04:28:33;53.60;;;38.35;;
26201;SDS011;13944;28.562;77.188;2022-08-23T04:31:00;49.92;;;40.33;;
26201;SDS011;13944;28.562;77.188;2022-08-23T04:33:28;58.42;;;39.25;;
26201;SDS011;13944;28.562;77.188;2022-08-23T04:35:58;52.30;;;38.33;;
26201;SDS011;13944;28.562;77.188;2022-08-23T04:38:25;48.83;;;37.13;;
26201;SDS011;13944;28.562;77.188;2022-08-23T04:40:52;48.85;;;38.33;;
26201;SDS011;13944;28.562;77.188;2022-08-23T04:43:38;48.33;;;37.83;;
26201;SDS011;13944;28.562;77.188;2022-08-23T04:46:05;48.67;;;38.38;;
26201;SDS011;13944;28.562;77.188;2022-08-23T04:48:33;48.17;;;38.70;;
26201;SDS011;13944;28.562;77.188;2022-08-23T04:50:59;47.58;;;37.70;;
26201;SDS011;13944;28.562;77.188;2022-08-23T04:53:26;50.83;;;41.30;;
26201;SDS011;13944;28.562;77.188;2022-08-23T04:55:59;50.95;;;40.05;;
26201;SDS011;13944;28.562;77.188;2022-08-23T04:58:27;53.67;;;42.47;;
26201;SDS011;13944;28.562;77.188;2022-08-23T05:00:54;51.08;;;42.75;;
26201;SDS011;13944;28.562;77.188;2022-08-23T05:03:20;50.05;;;42.83;;
26201;SDS011;13944;28.562;77.188;2022-08-23T05:05:47;51.55;;;41.03;;
26201;SDS011;13944;28.562;77.188;2022-08-23T05:08:13;53.65;;;44.70;;
26201;SDS011;13944;28.562;77.188;2022-08-23T05:10:40;50.58;;;42.80;;
26201;SDS011;13944;28.562;77.188;2022-08-23T05:13:06;54.33;;;43.90;;
26201;SDS011;13944;28.562;77.188;2022-08-23T05:15:33;52.47;;;43.25;;
26201;SDS011;13944;28.562;77.188;2022-08-23T05:18:00;51.58;;;41.40;;
26201;SDS011;13944;28.562;77.188;2022-08-23T05:20:26;50.00;;;42.22;;
26201;SDS011;13944;28.562;77.188;2022-08-23T05:22:53;55.13;;;43.83;;
26201;SDS011;13944;28.562;77.188;2022-08-23T05:25:20;52.33;;;42.88;;
26201;SDS011;13944;28.562;77.188;2022-08-23T05:27:46;52.78;;;45.55;;
26201;SDS011;13944;28.562;77.188;2022-08-23T05:30:13;57.13;;;46.47;;
26201;SDS011;13944;28.562;77.188;2022-08-23T05:32:40;53.88;;;43.22;;
26201;SDS011;13944;28.562;77.188;2022-08-23T05:35:06;54.15;;;44.13;;
26201;SDS011;13944;28.562;77.188;2022-08-23T05:37:33;55.10;;;42.58;;
26201;SDS011;13944;28.562;77.188;2022-08-23T05:39:59;50.30;;;40.88;;
26201;SDS011;13944;28.562;77.188;2022-08-23T05:42:26;57.55;;;41.60;;
26201;SDS011;13944;28.562;77.188;2022-08-23T05:44:52;51.00;;;37.47;;
26201;SDS011;13944;28.562;77.188;2022-08-23T05:47:19;46.28;;;37.65;;
26201;SDS011;13944;28.562;77.188;2022-08-23T05:49:46;45.78;;;37.63;;
26201;SDS011;13944;28.562;77.188;2022-08-23T05:52:13;55.47;;;37.25;;
26201;SDS011;13944;28.562;77.188;2022-08-23T05:54:39;49.17;;;36.33;;
26201;SDS011;13944;28.562;77.188;2022-08-23T05:57:06;44.10;;;34.92;;
26201;SDS011;13944;28.562;77.188;2022-08-23T05:59:34;41.38;;;33.92;;
26201;SDS011;13944;28.562;77.188;2022-08-23T06:02:00;41.78;;;32.10;;
26201;SDS011;13944;28.562;77.188;2022-08-23T06:04:27;37.30;;;30.70;;
26201;SDS011;13944;28.562;77.188;2022-08-23T06:06:53;36.92;;;29.48;;
26201;SDS011;13944;28.562;77.188;2022-08-23T06:09:23;142.88;;;41.50;;
26201;SDS011;13944;28.562;77.188;2022-08-23T06:11:49;61.88;;;30.38;;
26201;SDS011;13944;28.562;77.188;2022-08-23T06:14:16;46.95;;;27.85;;
26201;SDS011;13944;28.562;77.188;2022-08-23T06:16:45;44.47;;;27.02;;
26201;SDS011;13944;28.562;77.188;2022-08-23T06:19:12;36.03;;;25.08;;
26201;SDS011;13944;28.562;77.188;2022-08-23T06:21:39;36.22;;;24.92;;
26201;SDS011;13944;28.562;77.188;2022-08-23T06:24:06;39.08;;;24.40;;
26201;SDS011;13944;28.562;77.188;2022-08-23T06:26:36;39.10;;;27.60;;
26201;SDS011;13944;28.562;77.188;2022-08-23T06:29:05;40.65;;;28.27;;
26201;SDS011;13944;28.562;77.188;2022-08-23T06:31:32;36.65;;;28.92;;
26201;SDS011;13944;28.562;77.188;2022-08-23T06:34:30;35.75;;;22.73;;
26201;SDS011;13944;28.562;77.188;2022-08-23T06:37:05;28.73;;;19.75;;
26201;SDS011;13944;28.562;77.188;2022-08-23T06:39:32;28.92;;;19.45;;
26201;SDS011;13944;28.562;77.188;2022-08-23T06:42:10;30.58;;;19.48;;
26201;SDS011;13944;28.562;77.188;2022-08-23T06:44:37;29.58;;;19.08;;
26201;SDS011;13944;28.562;77.188;2022-08-23T06:47:04;28.08;;;18.23;;
26201;SDS011;13944;28.562;77.188;2022-08-23T06:49:31;24.52;;;19.60;;
26201;SDS011;13944;28.562;77.188;2022-08-23T06:51:59;25.55;;;18.30;;
26201;SDS011;13944;28.562;77.188;2022-08-23T06:54:27;30.98;;;18.73;;
26201;SDS011;13944;28.562;77.188;2022-08-23T06:56:54;24.42;;;17.15;;
26201;SDS011;13944;28.562;77.188;2022-08-23T06:59:21;26.85;;;17.42;;
26201;SDS011;13944;28.562;77.188;2022-08-23T07:01:49;23.73;;;16.33;;
26201;SDS011;13944;28.562;77.188;2022-08-23T07:04:21;20.92;;;14.48;;
26201;SDS011;13944;28.562;77.188;2022-08-23T07:06:48;19.35;;;13.60;;
26201;SDS011;13944;28.562;77.188;2022-08-23T07:09:18;24.58;;;12.07;;
26201;SDS011;13944;28.562;77.188;2022-08-23T07:11:44;26.73;;;12.68;;
26201;SDS011;13944;28.562;77.188;2022-08-23T07:14:12;21.23;;;12.80;;
26201;SDS011;13944;28.562;77.188;2022-08-23T07:16:43;19.52;;;11.75;;
26201;SDS011;13944;28.562;77.188;2022-08-23T07:19:12;20.15;;;11.52;;
26201;SDS011;13944;28.562;77.188;2022-08-23T07:21:39;22.98;;;11.43;;
26201;SDS011;13944;28.562;77.188;2022-08-23T07:24:06;18.83;;;10.60;;
26201;SDS011;13944;28.562;77.188;2022-08-23T07:26:33;15.80;;;10.00;;
26201;SDS011;13944;28.562;77.188;2022-08-23T07:29:07;19.30;;;9.55;;
26201;SDS011;13944;28.562;77.188;2022-08-23T07:31:37;22.50;;;9.68;;
26201;SDS011;13944;28.562;77.188;2022-08-23T07:34:04;18.50;;;9.25;;
26201;SDS011;13944;28.562;77.188;2022-08-23T07:36:32;21.85;;;9.00;;
26201;SDS011;13944;28.562;77.188;2022-08-23T07:38:59;21.67;;;8.90;;
26201;SDS011;13944;28.562;77.188;2022-08-23T07:41:26;20.13;;;8.23;;
26201;SDS011;13944;28.562;77.188;2022-08-23T07:43:54;15.18;;;8.43;;
26201;SDS011;13944;28.562;77.188;2022-08-23T07:46:23;13.90;;;7.78;;
26201;SDS011;13944;28.562;77.188;2022-08-23T07:48:50;15.05;;;7.57;;
26201;SDS011;13944;28.562;77.188;2022-08-23T07:51:17;17.10;;;7.28;;
26201;SDS011;13944;28.562;77.188;2022-08-23T07:53:43;11.90;;;6.50;;
26201;SDS011;13944;28.562;77.188;2022-08-23T07:56:11;20.13;;;7.55;;
26201;SDS011;13944;28.562;77.188;2022-08-23T07:58:38;18.52;;;6.78;;
26201;SDS011;13944;28.562;77.188;2022-08-23T08:01:25;14.38;;;6.93;;
26201;SDS011;13944;28.562;77.188;2022-08-23T08:03:52;15.40;;;7.78;;
26201;SDS011;13944;28.562;77.188;2022-08-23T08:06:21;17.05;;;7.85;;
26201;SDS011;13944;28.562;77.188;2022-08-23T08:08:48;14.48;;;7.55;;
26201;SDS011;13944;28.562;77.188;2022-08-23T08:11:19;16.50;;;7.90;;
26201;SDS011;13944;28.562;77.188;2022-08-23T08:13:47;11.52;;;7.53;;
26201;SDS011;13944;28.562;77.188;2022-08-23T08:16:21;15.98;;;8.02;;
26201;SDS011;13944;28.562;77.188;2022-08-23T08:18:48;19.52;;;9.35;;
26201;SDS011;13944;28.562;77.188;2022-08-23T08:21:15;13.40;;;7.40;;
26201;SDS011;13944;28.562;77.188;2022-08-23T08:23:42;14.95;;;7.97;;
26201;SDS011;13944;28.562;77.188;2022-08-23T08:26:09;15.23;;;7.88;;
26201;SDS011;13944;28.562;77.188;2022-08-23T08:28:36;15.50;;;6.97;;
26201;SDS011;13944;28.562;77.188;2022-08-23T08:31:03;15.25;;;6.55;;
26201;SDS011;13944;28.562;77.188;2022-08-23T08:33:30;14.63;;;6.97;;
26201;SDS011;13944;28.562;77.188;2022-08-23T08:35:57;12.45;;;7.20;;
26201;SDS011;13944;28.562;77.188;2022-08-23T08:38:24;15.13;;;6.75;;
26201;SDS011;13944;28.562;77.188;2022-08-23T08:41:03;14.02;;;6.40;;
26201;SDS011;13944;28.562;77.188;2022-08-23T08:46:17;12.98;;;6.10;;
26201;SDS011;13944;28.562;77.188;2022-08-23T08:48:46;13.98;;;5.35;;
26201;SDS011;13944;28.562;77.188;2022-08-23T08:51:18;11.10;;;5.90;;
26201;SDS011;13944;28.562;77.188;2022-08-23T08:53:51;15.07;;;5.68;;
26201;SDS011;13944;28.562;77.188;2022-08-23T08:56:29;15.10;;;5.80;;
26201;SDS011;13944;28.562;77.188;2022-08-23T08:59:00;15.77;;;5.95;;
26201;SDS011;13944;28.562;77.188;2022-08-23T09:01:28;15.43;;;5.93;;
26201;SDS011;13944;28.562;77.188;2022-08-23T09:03:55;12.52;;;6.00;;
26201;SDS011;13944;28.562;77.188;2022-08-23T09:11:50;13.27;;;5.88;;
26201;SDS011;13944;28.562;77.188;2022-08-23T09:16:57;12.45;;;5.97;;
26201;SDS011;13944;28.562;77.188;2022-08-23T09:19:26;13.93;;;6.40;;
26201;SDS011;13944;28.562;77.188;2022-08-23T09:21:57;17.77;;;6.37;;
26201;SDS011;13944;28.562;77.188;2022-08-23T09:24:24;14.73;;;5.55;;
26201;SDS011;13944;28.562;77.188;2022-08-23T09:26:52;11.75;;;5.78;;
26201;SDS011;13944;28.562;77.188;2022-08-23T09:29:20;13.73;;;5.55;;
26201;SDS011;13944;28.562;77.188;2022-08-23T09:31:51;12.48;;;6.07;;
26201;SDS011;13944;28.562;77.188;2022-08-23T09:34:22;20.05;;;6.00;;
26201;SDS011;13944;28.562;77.188;2022-08-23T09:37:09;15.20;;;6.63;;
26201;SDS011;13944;28.562;77.188;2022-08-23T09:39:38;15.40;;;6.55;;
26201;SDS011;13944;28.562;77.188;2022-08-23T09:42:10;13.60;;;7.10;;
26201;SDS011;13944;28.562;77.188;2022-08-23T09:44:51;11.10;;;6.13;;
26201;SDS011;13944;28.562;77.188;2022-08-23T09:47:18;15.73;;;6.18;;
26201;SDS011;13944;28.562;77.188;2022-08-23T09:49:46;11.05;;;6.55;;
26201;SDS011;13944;28.562;77.188;2022-08-23T09:52:25;14.50;;;7.47;;
26201;SDS011;13944;28.562;77.188;2022-08-23T09:54:59;18.40;;;7.13;;
26201;SDS011;13944;28.562;77.188;2022-08-23T09:57:28;12.48;;;7.22;;
26201;SDS011;13944;28.562;77.188;2022-08-23T09:59:58;12.52;;;6.88;;
26201;SDS011;13944;28.562;77.188;2022-08-23T10:02:28;9.77;;;6.35;;
26201;SDS011;13944;28.562;77.188;2022-08-23T10:05:03;15.93;;;6.60;;
26201;SDS011;13944;28.562;77.188;2022-08-23T10:12:45;11.60;;;7.03;;
26201;SDS011;13944;28.562;77.188;2022-08-23T10:15:12;13.68;;;6.82;;
26201;SDS011;13944;28.562;77.188;2022-08-23T10:20:28;10.98;;;6.93;;
26201;SDS011;13944;28.562;77.188;2022-08-23T10:36:33;16.50;;;10.23;;
26201;SDS011;13944;28.562;77.188;2022-08-23T10:39:09;16.83;;;9.35;;
26201;SDS011;13944;28.562;77.188;2022-08-23T10:41:44;18.67;;;10.13;;
26201;SDS011;13944;28.562;77.188;2022-08-23T10:44:23;13.95;;;8.60;;
26201;SDS011;13944;28.562;77.188;2022-08-23T10:49:52;13.35;;;6.10;;
26201;SDS011;13944;28.562;77.188;2022-08-23T10:52:25;9.82;;;6.10;;
26201;SDS011;13944;28.562;77.188;2022-08-23T10:54:57;11.32;;;6.03;;
26201;SDS011;13944;28.562;77.188;2022-08-23T10:57:31;10.45;;;5.60;;
26201;SDS011;13944;28.562;77.188;2022-08-23T11:00:24;14.32;;;5.82;;
26201;SDS011;13944;28.562;77.188;2022-08-23T11:02:53;11.20;;;5.43;;
26201;SDS011;13944;28.562;77.188;2022-08-23T11:05:24;14.68;;;6.22;;
26201;SDS011;13944;28.562;77.188;2022-08-23T11:08:34;10.38;;;5.20;;
26201;SDS011;13944;28.562;77.188;2022-08-23T11:10:42;12.50;;;5.35;;
26201;SDS011;13944;28.562;77.188;2022-08-23T11:15:38;13.10;;;5.57;;
26201;SDS011;13944;28.562;77.188;2022-08-23T11:18:08;11.05;;;5.55;;
26201;SDS011;13944;28.562;77.188;2022-08-23T11:25:59;17.02;;;6.22;;
26201;SDS011;13944;28.562;77.188;2022-08-23T11:33:30;13.45;;;5.70;;
26201;SDS011;13944;28.562;77.188;2022-08-23T11:43:46;12.52;;;5.55;;
26201;SDS011;13944;28.562;77.188;2022-08-23T11:46:15;11.63;;;5.22;;
26201;SDS011;13944;28.562;77.188;2022-08-23T11:48:51;11.45;;;5.53;;
26201;SDS011;13944;28.562;77.188;2022-08-23T12:01:34;9.48;;;4.25;;
26201;SDS011;13944;28.562;77.188;2022-08-23T12:06:48;9.73;;;4.00;;
26201;SDS011;13944;28.562;77.188;2022-08-23T12:14:31;7.95;;;4.00;;
26201;SDS011;13944;28.562;77.188;2022-08-23T12:17:01;11.63;;;3.67;;
26201;SDS011;13944;28.562;77.188;2022-08-23T12:19:31;9.68;;;3.95;;
26201;SDS011;13944;28.562;77.188;2022-08-23T12:22:04;9.35;;;3.78;;
26201;SDS011;13944;28.562;77.188;2022-08-23T12:24:32;8.23;;;3.70;;
26201;SDS011;13944;28.562;77.188;2022-08-23T12:27:28;5.85;;;3.00;;
26201;SDS011;13944;28.562;77.188;2022-08-23T12:30:01;12.02;;;3.72;;
26201;SDS011;13944;28.562;77.188;2022-08-23T12:41:00;10.60;;;3.90;;
26201;SDS011;13944;28.562;77.188;2022-08-23T12:43:29;9.75;;;4.60;;
26201;SDS011;13944;28.562;77.188;2022-08-23T12:45:57;8.90;;;4.40;;
26201;SDS011;13944;28.562;77.188;2022-08-23T12:48:31;10.55;;;4.22;;
26201;SDS011;13944;28.562;77.188;2022-08-23T12:53:35;9.25;;;4.00;;
26201;SDS011;13944;28.562;77.188;2022-08-23T12:56:06;8.80;;;3.72;;
26201;SDS011;13944;28.562;77.188;2022-08-23T12:58:34;11.98;;;4.28;;
26201;SDS011;13944;28.562;77.188;2022-08-23T13:01:03;10.70;;;3.90;;
26201;SDS011;13944;28.562;77.188;2022-08-23T13:03:35;11.27;;;4.53;;
26201;SDS011;13944;28.562;77.188;2022-08-23T13:06:08;10.65;;;4.32;;
26201;SDS011;13944;28.562;77.188;2022-08-23T13:08:41;15.80;;;4.78;;
26201;SDS011;13944;28.562;77.188;2022-08-23T13:11:09;13.18;;;4.75;;
26201;SDS011;13944;28.562;77.188;2022-08-23T13:13:37;13.63;;;4.50;;
26201;SDS011;13944;28.562;77.188;2022-08-23T13:18:49;14.13;;;4.38;;
26201;SDS011;13944;28.562;77.188;2022-08-23T13:23:48;14.40;;;4.95;;
26201;SDS011;13944;28.562;77.188;2022-08-23T13:26:24;18.90;;;4.78;;
26201;SDS011;13944;28.562;77.188;2022-08-23T13:29:06;8.77;;;4.72;;
26201;SDS011;13944;28.562;77.188;2022-08-23T13:31:53;11.80;;;4.40;;
26201;SDS011;13944;28.562;77.188;2022-08-23T13:36:57;15.07;;;5.93;;
26201;SDS011;13944;28.562;77.188;2022-08-23T13:39:24;14.98;;;5.60;;
26201;SDS011;13944;28.562;77.188;2022-08-23T13:41:51;11.27;;;5.25;;
26201;SDS011;13944;28.562;77.188;2022-08-23T13:44:17;12.05;;;5.60;;
26201;SDS011;13944;28.562;77.188;2022-08-23T13:46:45;16.92;;;5.82;;
26201;SDS011;13944;28.562;77.188;2022-08-23T13:49:20;13.07;;;5.78;;
26201;SDS011;13944;28.562;77.188;2022-08-23T13:54:27;12.25;;;5.60;;
26201;SDS011;13944;28.562;77.188;2022-08-23T13:56:55;18.80;;;6.35;;
26201;SDS011;13944;28.562;77.188;2022-08-23T13:59:35;13.18;;;6.07;;
26201;SDS011;13944;28.562;77.188;2022-08-23T14:02:06;20.00;;;6.50;;
26201;SDS011;13944;28.562;77.188;2022-08-23T14:04:36;15.80;;;6.55;;
26201;SDS011;13944;28.562;77.188;2022-08-23T14:07:03;15.98;;;6.75;;
26201;SDS011;13944;28.562;77.188;2022-08-23T14:09:30;14.55;;;6.68;;
26201;SDS011;13944;28.562;77.188;2022-08-23T14:11:58;17.38;;;6.70;;
26201;SDS011;13944;28.562;77.188;2022-08-23T14:14:26;19.30;;;6.85;;
26201;SDS011;13944;28.562;77.188;2022-08-23T14:16:55;20.45;;;7.30;;
26201;SDS011;13944;28.562;77.188;2022-08-23T14:19:22;16.27;;;7.25;;
26201;SDS011;13944;28.562;77.188;2022-08-23T14:21:49;19.02;;;7.45;;
26201;SDS011;13944;28.562;77.188;2022-08-23T14:24:16;18.90;;;7.15;;
26201;SDS011;13944;28.562;77.188;2022-08-23T14:26:43;15.85;;;7.55;;
26201;SDS011;13944;28.562;77.188;2022-08-23T14:29:09;18.98;;;8.18;;
26201;SDS011;13944;28.562;77.188;2022-08-23T14:31:36;20.48;;;7.63;;
26201;SDS011;13944;28.562;77.188;2022-08-23T14:34:02;20.92;;;8.30;;
26201;SDS011;13944;28.562;77.188;2022-08-23T14:36:30;21.33;;;8.43;;
26201;SDS011;13944;28.562;77.188;2022-08-23T14:38:57;19.10;;;8.13;;
26201;SDS011;13944;28.562;77.188;2022-08-23T14:41:24;16.92;;;8.77;;
26201;SDS011;13944;28.562;77.188;2022-08-23T14:43:51;18.17;;;8.82;;
26201;SDS011;13944;28.562;77.188;2022-08-23T14:46:19;19.92;;;8.43;;
26201;SDS011;13944;28.562;77.188;2022-08-23T14:48:45;17.17;;;8.68;;
26201;SDS011;13944;28.562;77.188;2022-08-23T14:51:22;18.67;;;8.10;;
26201;SDS011;13944;28.562;77.188;2022-08-23T14:53:50;18.33;;;8.45;;
26201;SDS011;13944;28.562;77.188;2022-08-23T14:56:17;16.48;;;8.93;;
26201;SDS011;13944;28.562;77.188;2022-08-23T14:58:43;20.30;;;9.32;;
26201;SDS011;13944;28.562;77.188;2022-08-23T15:01:10;17.70;;;8.82;;
26201;SDS011;13944;28.562;77.188;2022-08-23T15:03:37;20.25;;;9.05;;
26201;SDS011;13944;28.562;77.188;2022-08-23T15:06:09;18.38;;;8.90;;
26201;SDS011;13944;28.562;77.188;2022-08-23T15:08:36;17.85;;;9.10;;
26201;SDS011;13944;28.562;77.188;2022-08-23T15:11:02;20.98;;;9.27;;
26201;SDS011;13944;28.562;77.188;2022-08-23T15:13:32;20.63;;;9.55;;
26201;SDS011;13944;28.562;77.188;2022-08-23T15:15:58;16.38;;;8.77;;
26201;SDS011;13944;28.562;77.188;2022-08-23T15:18:25;21.00;;;10.02;;
26201;SDS011;13944;28.562;77.188;2022-08-23T15:20:52;20.17;;;10.20;;
26201;SDS011;13944;28.562;77.188;2022-08-23T15:23:18;17.98;;;9.68;;
26201;SDS011;13944;28.562;77.188;2022-08-23T15:25:45;20.90;;;9.32;;
26201;SDS011;13944;28.562;77.188;2022-08-23T15:28:12;19.98;;;9.48;;
26201;SDS011;13944;28.562;77.188;2022-08-23T15:30:40;18.00;;;9.60;;
26201;SDS011;13944;28.562;77.188;2022-08-23T15:33:06;15.18;;;8.90;;
26201;SDS011;13944;28.562;77.188;2022-08-23T15:35:37;18.48;;;9.77;;
26201;SDS011;13944;28.562;77.188;2022-08-23T15:38:04;20.23;;;9.57;;
26201;SDS011;13944;28.562;77.188;2022-08-23T15:40:31;18.40;;;10.15;;
26201;SDS011;13944;28.562;77.188;2022-08-23T15:42:58;19.55;;;9.60;;
26201;SDS011;13944;28.562;77.188;2022-08-23T15:45:24;17.30;;;9.73;;
26201;SDS011;13944;28.562;77.188;2022-08-23T15:47:52;21.33;;;9.35;;
26201;SDS011;13944;28.562;77.188;2022-08-23T15:50:21;14.30;;;8.70;;
26201;SDS011;13944;28.562;77.188;2022-08-23T15:52:48;18.48;;;9.57;;
26201;SDS011;13944;28.562;77.188;2022-08-23T15:55:15;16.48;;;8.65;;
26201;SDS011;13944;28.562;77.188;2022-08-23T15:57:45;20.27;;;8.27;;
26201;SDS011;13944;28.562;77.188;2022-08-23T16:00:13;16.05;;;8.13;;
26201;SDS011;13944;28.562;77.188;2022-08-23T16:02:41;15.63;;;8.15;;
26201;SDS011;13944;28.562;77.188;2022-08-23T16:05:08;16.52;;;9.05;;